Smyrna, Texas
Current Conditions -  °F | °C
As of 8:27 AM on Saturday 20 Dec 2014 (Local Time) from KTXK Reporting Station
Haze Haze  
Wind Chill: 42°   Ceiling: 700
Heat Index: 42°   Visibility: 4mi
Dew Point: 40°   Wind: 3mph
Humidity: 92%   Direction: NA
Pressure: 30.26"   Gusts: NA
Location:  33.0888°N, 94.1627°W
Report Text: KTXK 201427Z AUTO VRB03KT 4SM BR BKN007 OVC036 06/04 A3026 RMK AO2 T00560044
Loading
Personal Weather Stations






























Interactive Weather Map New forecast layout! Learn more

10-Day Weather Forecast

Advertisements
Track Severe Weather on mobile